sensor_id;sensor_type;location;lat;lon;timestamp;temperature;humidity
59208;DHT22;44977;53.132;6.408;2023-04-24T00:02:13;11.60;99.90
59208;DHT22;44977;53.132;6.408;2023-04-24T00:07:14;11.50;99.90
59208;DHT22;44977;53.132;6.408;2023-04-24T00:12:17;11.40;99.90
59208;DHT22;44977;53.132;6.408;2023-04-24T00:17:18;11.50;99.90
59208;DHT22;44977;53.132;6.408;2023-04-24T00:22:21;11.40;99.90
59208;DHT22;44977;53.132;6.408;2023-04-24T00:27:23;11.50;99.90
59208;DHT22;44977;53.132;6.408;2023-04-24T00:32:23;11.40;99.90
59208;DHT22;44977;53.132;6.408;2023-04-24T00:37:24;11.40;99.90
59208;DHT22;44977;53.132;6.408;2023-04-24T00:42:25;11.40;99.90
59208;DHT22;44977;53.132;6.408;2023-04-24T00:47:26;11.30;99.90
59208;DHT22;44977;53.132;6.408;2023-04-24T00:52:28;11.30;99.90
59208;DHT22;44977;53.132;6.408;2023-04-24T00:57:31;11.20;99.90
59208;DHT22;44977;53.132;6.408;2023-04-24T01:02:32;11.10;99.90
59208;DHT22;44977;53.132;6.408;2023-04-24T01:07:34;11.10;99.90
59208;DHT22;44977;53.132;6.408;2023-04-24T01:12:36;11.00;99.90
59208;DHT22;44977;53.132;6.408;2023-04-24T01:17:37;11.00;99.90
59208;DHT22;44977;53.132;6.408;2023-04-24T01:22:39;11.00;99.90
59208;DHT22;44977;53.132;6.408;2023-04-24T01:27:41;10.90;99.90
59208;DHT22;44977;53.132;6.408;2023-04-24T01:32:42;10.90;99.90
59208;DHT22;44977;53.132;6.408;2023-04-24T01:37:44;10.90;99.90
59208;DHT22;44977;53.132;6.408;2023-04-24T01:42:45;10.90;99.90
59208;DHT22;44977;53.132;6.408;2023-04-24T01:47:46;10.80;99.90
59208;DHT22;44977;53.132;6.408;2023-04-24T01:52:48;10.80;99.90
59208;DHT22;44977;53.132;6.408;2023-04-24T01:57:49;10.80;99.90
59208;DHT22;44977;53.132;6.408;2023-04-24T02:02:50;10.80;99.90
59208;DHT22;44977;53.132;6.408;2023-04-24T02:07:51;10.80;99.90
59208;DHT22;44977;53.132;6.408;2023-04-24T02:12:51;10.70;99.90
59208;DHT22;44977;53.132;6.408;2023-04-24T02:17:52;10.70;99.90
59208;DHT22;44977;53.132;6.408;2023-04-24T02:22:52;10.70;99.90
59208;DHT22;44977;53.132;6.408;2023-04-24T02:27:53;10.70;99.90
59208;DHT22;44977;53.132;6.408;2023-04-24T02:32:54;10.70;99.90
59208;DHT22;44977;53.132;6.408;2023-04-24T02:37:55;10.70;99.90
59208;DHT22;44977;53.132;6.408;2023-04-24T02:42:56;10.70;99.90
59208;DHT22;44977;53.132;6.408;2023-04-24T02:47:56;10.60;99.90
59208;DHT22;44977;53.132;6.408;2023-04-24T02:52:57;10.60;99.90
59208;DHT22;44977;53.132;6.408;2023-04-24T02:57:58;10.60;99.90
59208;DHT22;44977;53.132;6.408;2023-04-24T03:02:58;10.60;99.90
59208;DHT22;44977;53.132;6.408;2023-04-24T03:08:00;10.60;99.90
59208;DHT22;44977;53.132;6.408;2023-04-24T03:13:00;10.60;99.90
59208;DHT22;44977;53.132;6.408;2023-04-24T03:18:01;10.60;99.90
59208;DHT22;44977;53.132;6.408;2023-04-24T03:23:03;10.60;99.90
59208;DHT22;44977;53.132;6.408;2023-04-24T03:28:04;10.60;99.90
59208;DHT22;44977;53.132;6.408;2023-04-24T03:33:05;10.60;99.90
59208;DHT22;44977;53.132;6.408;2023-04-24T03:38:06;10.60;99.90
59208;DHT22;44977;53.132;6.408;2023-04-24T03:43:06;10.60;99.90
59208;DHT22;44977;53.132;6.408;2023-04-24T03:48:07;10.60;99.90
59208;DHT22;44977;53.132;6.408;2023-04-24T03:53:08;10.60;99.90
59208;DHT22;44977;53.132;6.408;2023-04-24T03:58:08;10.60;99.90
59208;DHT22;44977;53.132;6.408;2023-04-24T04:03:09;10.50;99.90
59208;DHT22;44977;53.132;6.408;2023-04-24T04:08:10;10.60;99.90
59208;DHT22;44977;53.132;6.408;2023-04-24T04:13:10;10.60;99.90
59208;DHT22;44977;53.132;6.408;2023-04-24T04:18:11;10.50;99.90
59208;DHT22;44977;53.132;6.408;2023-04-24T04:23:12;10.50;99.90
59208;DHT22;44977;53.132;6.408;2023-04-24T04:28:12;10.50;99.90
59208;DHT22;44977;53.132;6.408;2023-04-24T04:33:13;10.50;99.90
59208;DHT22;44977;53.132;6.408;2023-04-24T04:38:15;10.50;99.90
59208;DHT22;44977;53.132;6.408;2023-04-24T04:43:17;10.50;99.90
59208;DHT22;44977;53.132;6.408;2023-04-24T04:48:18;10.40;99.90
59208;DHT22;44977;53.132;6.408;2023-04-24T04:53:19;10.50;99.90
59208;DHT22;44977;53.132;6.408;2023-04-24T04:58:19;10.50;99.90
59208;DHT22;44977;53.132;6.408;2023-04-24T05:03:20;10.50;99.90
59208;DHT22;44977;53.132;6.408;2023-04-24T05:08:21;10.60;99.90
59208;DHT22;44977;53.132;6.408;2023-04-24T05:13:21;10.50;99.90
59208;DHT22;44977;53.132;6.408;2023-04-24T05:18:22;10.50;99.90
59208;DHT22;44977;53.132;6.408;2023-04-24T05:23:23;10.50;99.90
59208;DHT22;44977;53.132;6.408;2023-04-24T05:28:23;10.60;99.90
59208;DHT22;44977;53.132;6.408;2023-04-24T05:33:28;10.60;99.90
59208;DHT22;44977;53.132;6.408;2023-04-24T05:38:29;10.60;99.90
59208;DHT22;44977;53.132;6.408;2023-04-24T05:43:29;10.50;99.90
59208;DHT22;44977;53.132;6.408;2023-04-24T05:48:30;10.60;99.90
59208;DHT22;44977;53.132;6.408;2023-04-24T05:53:31;10.50;99.90
59208;DHT22;44977;53.132;6.408;2023-04-24T05:58:31;10.50;99.90
59208;DHT22;44977;53.132;6.408;2023-04-24T06:03:32;10.50;99.90
59208;DHT22;44977;53.132;6.408;2023-04-24T06:08:36;10.40;99.90
59208;DHT22;44977;53.132;6.408;2023-04-24T06:13:37;10.40;99.90
59208;DHT22;44977;53.132;6.408;2023-04-24T06:18:38;10.40;99.90
59208;DHT22;44977;53.132;6.408;2023-04-24T06:23:38;10.40;99.90
59208;DHT22;44977;53.132;6.408;2023-04-24T06:28:39;10.40;99.90
59208;DHT22;44977;53.132;6.408;2023-04-24T06:33:40;10.40;99.90
59208;DHT22;44977;53.132;6.408;2023-04-24T06:38:41;10.50;99.90
59208;DHT22;44977;53.132;6.408;2023-04-24T06:43:41;10.40;99.90
59208;DHT22;44977;53.132;6.408;2023-04-24T06:48:43;10.50;99.90
59208;DHT22;44977;53.132;6.408;2023-04-24T06:53:44;10.50;99.90
59208;DHT22;44977;53.132;6.408;2023-04-24T06:58:44;10.50;99.90
59208;DHT22;44977;53.132;6.408;2023-04-24T07:03:45;10.50;99.90
59208;DHT22;44977;53.132;6.408;2023-04-24T07:08:46;10.50;99.90
59208;DHT22;44977;53.132;6.408;2023-04-24T07:13:47;10.50;99.90
59208;DHT22;44977;53.132;6.408;2023-04-24T07:18:48;10.40;99.90
59208;DHT22;44977;53.132;6.408;2023-04-24T07:23:49;10.40;99.90
59208;DHT22;44977;53.132;6.408;2023-04-24T07:28:50;10.40;99.90
59208;DHT22;44977;53.132;6.408;2023-04-24T07:33:51;10.30;99.90
59208;DHT22;44977;53.132;6.408;2023-04-24T07:38:51;10.20;99.90
59208;DHT22;44977;53.132;6.408;2023-04-24T07:43:53;10.20;99.90
59208;DHT22;44977;53.132;6.408;2023-04-24T07:48:54;10.20;99.90
59208;DHT22;44977;53.132;6.408;2023-04-24T07:53:55;10.10;99.90
59208;DHT22;44977;53.132;6.408;2023-04-24T07:58:56;10.10;99.90
59208;DHT22;44977;53.132;6.408;2023-04-24T08:03:56;10.00;99.90
59208;DHT22;44977;53.132;6.408;2023-04-24T08:08:57;10.00;99.90
59208;DHT22;44977;53.132;6.408;2023-04-24T08:13:58;9.90;99.90
59208;DHT22;44977;53.132;6.408;2023-04-24T08:18:59;9.90;99.90
59208;DHT22;44977;53.132;6.408;2023-04-24T08:24:00;9.90;99.90
59208;DHT22;44977;53.132;6.408;2023-04-24T08:29:00;9.80;99.90
59208;DHT22;44977;53.132;6.408;2023-04-24T08:34:01;9.80;99.90
59208;DHT22;44977;53.132;6.408;2023-04-24T08:39:02;9.70;99.90
59208;DHT22;44977;53.132;6.408;2023-04-24T08:44:03;9.70;99.90
59208;DHT22;44977;53.132;6.408;2023-04-24T08:49:04;9.60;99.90
59208;DHT22;44977;53.132;6.408;2023-04-24T08:54:05;9.60;99.90
59208;DHT22;44977;53.132;6.408;2023-04-24T08:59:08;9.60;99.90
59208;DHT22;44977;53.132;6.408;2023-04-24T09:04:09;9.60;99.90
59208;DHT22;44977;53.132;6.408;2023-04-24T09:09:15;9.50;99.90
59208;DHT22;44977;53.132;6.408;2023-04-24T09:14:17;9.60;99.90
59208;DHT22;44977;53.132;6.408;2023-04-24T09:19:18;9.60;99.90
59208;DHT22;44977;53.132;6.408;2023-04-24T09:24:20;9.60;99.90
59208;DHT22;44977;53.132;6.408;2023-04-24T09:29:23;9.60;99.90
59208;DHT22;44977;53.132;6.408;2023-04-24T09:34:25;9.70;99.90
59208;DHT22;44977;53.132;6.408;2023-04-24T09:39:26;9.70;99.90
59208;DHT22;44977;53.132;6.408;2023-04-24T09:44:27;9.70;99.90
59208;DHT22;44977;53.132;6.408;2023-04-24T09:49:29;9.70;99.90
59208;DHT22;44977;53.132;6.408;2023-04-24T09:54:30;9.70;99.90
59208;DHT22;44977;53.132;6.408;2023-04-24T09:59:31;9.70;99.90
59208;DHT22;44977;53.132;6.408;2023-04-24T10:04:32;9.70;99.90
59208;DHT22;44977;53.132;6.408;2023-04-24T10:09:33;9.80;99.90
59208;DHT22;44977;53.132;6.408;2023-04-24T10:14:34;9.90;99.90
59208;DHT22;44977;53.132;6.408;2023-04-24T10:19:35;10.00;99.90
59208;DHT22;44977;53.132;6.408;2023-04-24T10:24:37;10.00;99.90
59208;DHT22;44977;53.132;6.408;2023-04-24T10:29:39;10.00;99.90
59208;DHT22;44977;53.132;6.408;2023-04-24T10:34:40;10.00;99.90
59208;DHT22;44977;53.132;6.408;2023-04-24T10:39:41;10.10;99.90
59208;DHT22;44977;53.132;6.408;2023-04-24T10:44:42;10.10;99.90
59208;DHT22;44977;53.132;6.408;2023-04-24T10:49:43;10.10;99.90
59208;DHT22;44977;53.132;6.408;2023-04-24T10:54:47;10.10;99.90
59208;DHT22;44977;53.132;6.408;2023-04-24T10:59:49;10.10;99.90
59208;DHT22;44977;53.132;6.408;2023-04-24T11:04:51;10.20;99.90
59208;DHT22;44977;53.132;6.408;2023-04-24T11:09:58;10.10;99.90
59208;DHT22;44977;53.132;6.408;2023-04-24T11:15:02;10.20;99.90
59208;DHT22;44977;53.132;6.408;2023-04-24T11:20:05;10.20;99.90
59208;DHT22;44977;53.132;6.408;2023-04-24T11:25:10;10.20;99.90
59208;DHT22;44977;53.132;6.408;2023-04-24T11:30:20;10.20;99.90
59208;DHT22;44977;53.132;6.408;2023-04-24T11:35:22;10.30;99.90
59208;DHT22;44977;53.132;6.408;2023-04-24T11:40:28;10.30;99.90
59208;DHT22;44977;53.132;6.408;2023-04-24T11:45:29;10.30;99.90
59208;DHT22;44977;53.132;6.408;2023-04-24T11:50:31;10.30;99.90
59208;DHT22;44977;53.132;6.408;2023-04-24T11:55:31;10.30;99.90
59208;DHT22;44977;53.132;6.408;2023-04-24T12:00:32;10.10;99.90
59208;DHT22;44977;53.132;6.408;2023-04-24T12:05:34;10.00;99.90
59208;DHT22;44977;53.132;6.408;2023-04-24T12:10:36;9.90;99.90
59208;DHT22;44977;53.132;6.408;2023-04-24T12:15:40;9.90;99.90
59208;DHT22;44977;53.132;6.408;2023-04-24T12:20:41;9.90;99.90
59208;DHT22;44977;53.132;6.408;2023-04-24T12:25:41;10.00;99.90
59208;DHT22;44977;53.132;6.408;2023-04-24T12:30:48;10.00;99.90
59208;DHT22;44977;53.132;6.408;2023-04-24T12:35:52;10.00;99.90
59208;DHT22;44977;53.132;6.408;2023-04-24T12:41:03;10.10;99.90
59208;DHT22;44977;53.132;6.408;2023-04-24T12:46:05;10.10;99.90
59208;DHT22;44977;53.132;6.408;2023-04-24T12:51:08;10.10;99.90
59208;DHT22;44977;53.132;6.408;2023-04-24T12:56:09;10.10;99.90
59208;DHT22;44977;53.132;6.408;2023-04-24T13:01:09;10.20;99.90
59208;DHT22;44977;53.132;6.408;2023-04-24T13:06:10;10.20;99.90
59208;DHT22;44977;53.132;6.408;2023-04-24T13:11:11;10.10;99.90
59208;DHT22;44977;53.132;6.408;2023-04-24T13:16:12;10.20;99.90
59208;DHT22;44977;53.132;6.408;2023-04-24T13:21:12;10.30;99.90
59208;DHT22;44977;53.132;6.408;2023-04-24T13:26:13;10.40;99.90
59208;DHT22;44977;53.132;6.408;2023-04-24T13:31:14;10.50;99.90
59208;DHT22;44977;53.132;6.408;2023-04-24T13:36:14;10.40;99.90
59208;DHT22;44977;53.132;6.408;2023-04-24T13:41:16;10.40;99.90
59208;DHT22;44977;53.132;6.408;2023-04-24T13:46:16;10.40;99.90
59208;DHT22;44977;53.132;6.408;2023-04-24T13:51:17;10.40;99.90
59208;DHT22;44977;53.132;6.408;2023-04-24T13:56:18;10.30;99.90
59208;DHT22;44977;53.132;6.408;2023-04-24T14:01:19;10.30;99.90
59208;DHT22;44977;53.132;6.408;2023-04-24T14:06:20;10.20;99.90
59208;DHT22;44977;53.132;6.408;2023-04-24T14:11:21;10.10;99.90
59208;DHT22;44977;53.132;6.408;2023-04-24T14:16:22;10.00;99.90
59208;DHT22;44977;53.132;6.408;2023-04-24T14:21:23;9.90;99.90
59208;DHT22;44977;53.132;6.408;2023-04-24T14:26:24;9.90;99.90
59208;DHT22;44977;53.132;6.408;2023-04-24T14:31:25;9.80;99.90
59208;DHT22;44977;53.132;6.408;2023-04-24T14:36:26;9.80;99.90
59208;DHT22;44977;53.132;6.408;2023-04-24T14:41:26;9.70;99.90
59208;DHT22;44977;53.132;6.408;2023-04-24T14:46:27;9.80;99.90
59208;DHT22;44977;53.132;6.408;2023-04-24T14:51:28;9.70;99.90
59208;DHT22;44977;53.132;6.408;2023-04-24T14:56:29;9.70;99.90
59208;DHT22;44977;53.132;6.408;2023-04-24T15:01:29;9.70;99.90
59208;DHT22;44977;53.132;6.408;2023-04-24T15:06:30;9.60;99.90
59208;DHT22;44977;53.132;6.408;2023-04-24T15:11:32;9.70;99.90
59208;DHT22;44977;53.132;6.408;2023-04-24T15:16:33;9.70;99.90
59208;DHT22;44977;53.132;6.408;2023-04-24T15:21:34;9.70;99.90
59208;DHT22;44977;53.132;6.408;2023-04-24T15:26:36;9.70;99.90
59208;DHT22;44977;53.132;6.408;2023-04-24T15:31:36;9.70;99.90
59208;DHT22;44977;53.132;6.408;2023-04-24T15:36:40;9.70;99.90
59208;DHT22;44977;53.132;6.408;2023-04-24T15:41:40;9.70;99.90
59208;DHT22;44977;53.132;6.408;2023-04-24T15:46:41;9.70;99.90
59208;DHT22;44977;53.132;6.408;2023-04-24T15:51:42;9.70;99.90
59208;DHT22;44977;53.132;6.408;2023-04-24T15:56:44;9.70;99.90
59208;DHT22;44977;53.132;6.408;2023-04-24T16:01:45;9.70;99.90
59208;DHT22;44977;53.132;6.408;2023-04-24T16:06:46;9.50;99.90
59208;DHT22;44977;53.132;6.408;2023-04-24T16:11:47;9.50;99.90
59208;DHT22;44977;53.132;6.408;2023-04-24T16:16:47;9.50;99.90
59208;DHT22;44977;53.132;6.408;2023-04-24T16:21:48;9.50;99.90
59208;DHT22;44977;53.132;6.408;2023-04-24T16:26:50;9.50;99.90
59208;DHT22;44977;53.132;6.408;2023-04-24T16:31:53;9.40;99.90
59208;DHT22;44977;53.132;6.408;2023-04-24T16:36:54;9.40;99.90
59208;DHT22;44977;53.132;6.408;2023-04-24T16:41:55;9.40;99.90
59208;DHT22;44977;53.132;6.408;2023-04-24T16:46:57;9.30;99.90
59208;DHT22;44977;53.132;6.408;2023-04-24T16:51:58;9.20;99.90
59208;DHT22;44977;53.132;6.408;2023-04-24T16:56:59;9.10;99.90
59208;DHT22;44977;53.132;6.408;2023-04-24T17:02:00;9.10;99.90
59208;DHT22;44977;53.132;6.408;2023-04-24T17:07:01;9.00;99.90
59208;DHT22;44977;53.132;6.408;2023-04-24T17:12:01;9.10;99.90
59208;DHT22;44977;53.132;6.408;2023-04-24T17:17:02;9.00;99.90
59208;DHT22;44977;53.132;6.408;2023-04-24T17:22:03;9.00;99.90
59208;DHT22;44977;53.132;6.408;2023-04-24T17:27:04;8.90;99.90
59208;DHT22;44977;53.132;6.408;2023-04-24T17:32:05;8.90;99.90
59208;DHT22;44977;53.132;6.408;2023-04-24T17:37:06;8.80;99.90
59208;DHT22;44977;53.132;6.408;2023-04-24T17:42:06;8.80;99.90
59208;DHT22;44977;53.132;6.408;2023-04-24T17:47:07;8.70;99.90
59208;DHT22;44977;53.132;6.408;2023-04-24T17:52:08;8.70;99.90
59208;DHT22;44977;53.132;6.408;2023-04-24T17:57:08;8.70;99.90
59208;DHT22;44977;53.132;6.408;2023-04-24T18:02:09;8.60;99.90
59208;DHT22;44977;53.132;6.408;2023-04-24T18:07:10;8.60;99.90
59208;DHT22;44977;53.132;6.408;2023-04-24T18:12:11;8.60;99.90
59208;DHT22;44977;53.132;6.408;2023-04-24T18:17:12;8.50;99.90
59208;DHT22;44977;53.132;6.408;2023-04-24T18:22:13;8.50;99.90
59208;DHT22;44977;53.132;6.408;2023-04-24T18:27:13;8.50;99.90
59208;DHT22;44977;53.132;6.408;2023-04-24T18:32:14;8.50;99.90
59208;DHT22;44977;53.132;6.408;2023-04-24T18:37:15;8.40;99.90
59208;DHT22;44977;53.132;6.408;2023-04-24T18:42:17;8.40;99.90
59208;DHT22;44977;53.132;6.408;2023-04-24T18:47:18;8.40;99.90
59208;DHT22;44977;53.132;6.408;2023-04-24T18:52:18;8.30;99.90
59208;DHT22;44977;53.132;6.408;2023-04-24T18:57:19;8.30;99.90
59208;DHT22;44977;53.132;6.408;2023-04-24T19:02:20;8.20;99.90
59208;DHT22;44977;53.132;6.408;2023-04-24T19:07:21;8.20;99.90
59208;DHT22;44977;53.132;6.408;2023-04-24T19:12:21;8.20;99.90
59208;DHT22;44977;53.132;6.408;2023-04-24T19:17:22;8.10;99.90
59208;DHT22;44977;53.132;6.408;2023-04-24T19:22:27;8.20;99.90
59208;DHT22;44977;53.132;6.408;2023-04-24T19:27:29;8.10;99.90
59208;DHT22;44977;53.132;6.408;2023-04-24T19:32:29;8.10;99.90
59208;DHT22;44977;53.132;6.408;2023-04-24T19:37:30;8.20;99.90
59208;DHT22;44977;53.132;6.408;2023-04-24T19:42:33;8.20;99.90
59208;DHT22;44977;53.132;6.408;2023-04-24T19:47:34;8.20;99.90
59208;DHT22;44977;53.132;6.408;2023-04-24T19:52:35;8.20;99.90
59208;DHT22;44977;53.132;6.408;2023-04-24T19:57:35;8.20;99.90
59208;DHT22;44977;53.132;6.408;2023-04-24T20:02:36;8.20;99.90
59208;DHT22;44977;53.132;6.408;2023-04-24T20:07:37;8.20;99.90
59208;DHT22;44977;53.132;6.408;2023-04-24T20:12:37;8.10;99.90
59208;DHT22;44977;53.132;6.408;2023-04-24T20:17:38;8.20;99.90
59208;DHT22;44977;53.132;6.408;2023-04-24T20:22:39;8.20;99.90
59208;DHT22;44977;53.132;6.408;2023-04-24T20:27:40;8.10;99.90
59208;DHT22;44977;53.132;6.408;2023-04-24T20:32:41;8.20;99.90
59208;DHT22;44977;53.132;6.408;2023-04-24T20:37:42;8.10;99.90
59208;DHT22;44977;53.132;6.408;2023-04-24T20:42:43;8.10;99.90
59208;DHT22;44977;53.132;6.408;2023-04-24T20:47:48;8.10;99.90
59208;DHT22;44977;53.132;6.408;2023-04-24T20:52:48;8.10;99.90
59208;DHT22;44977;53.132;6.408;2023-04-24T20:57:49;8.10;99.90
59208;DHT22;44977;53.132;6.408;2023-04-24T21:02:50;8.10;99.90
59208;DHT22;44977;53.132;6.408;2023-04-24T21:07:51;8.10;99.90
59208;DHT22;44977;53.132;6.408;2023-04-24T21:12:55;8.10;99.90
59208;DHT22;44977;53.132;6.408;2023-04-24T21:17:55;8.10;99.90
59208;DHT22;44977;53.132;6.408;2023-04-24T21:22:56;8.00;99.90
59208;DHT22;44977;53.132;6.408;2023-04-24T21:27:58;8.00;99.90
59208;DHT22;44977;53.132;6.408;2023-04-24T21:32:59;8.00;99.90
59208;DHT22;44977;53.132;6.408;2023-04-24T21:37:59;8.00;99.90
59208;DHT22;44977;53.132;6.408;2023-04-24T21:43:00;8.00;99.90
59208;DHT22;44977;53.132;6.408;2023-04-24T21:48:01;8.00;99.90
59208;DHT22;44977;53.132;6.408;2023-04-24T21:53:02;7.90;99.90
59208;DHT22;44977;53.132;6.408;2023-04-24T21:58:03;7.90;99.90
59208;DHT22;44977;53.132;6.408;2023-04-24T22:03:03;7.90;99.90
59208;DHT22;44977;53.132;6.408;2023-04-24T22:08:04;7.80;99.90
59208;DHT22;44977;53.132;6.408;2023-04-24T22:13:06;7.80;99.90
59208;DHT22;44977;53.132;6.408;2023-04-24T22:18:07;7.80;99.90
59208;DHT22;44977;53.132;6.408;2023-04-24T22:23:08;7.80;99.90
59208;DHT22;44977;53.132;6.408;2023-04-24T22:28:09;7.70;99.90
59208;DHT22;44977;53.132;6.408;2023-04-24T22:33:10;7.70;99.90
59208;DHT22;44977;53.132;6.408;2023-04-24T22:38:10;7.60;99.90
59208;DHT22;44977;53.132;6.408;2023-04-24T22:43:11;7.60;99.90
59208;DHT22;44977;53.132;6.408;2023-04-24T22:48:12;7.50;99.90
59208;DHT22;44977;53.132;6.408;2023-04-24T22:53:13;7.50;99.90
59208;DHT22;44977;53.132;6.408;2023-04-24T22:58:14;7.50;99.90
59208;DHT22;44977;53.132;6.408;2023-04-24T23:03:15;7.40;99.90
59208;DHT22;44977;53.132;6.408;2023-04-24T23:08:16;7.40;99.90
59208;DHT22;44977;53.132;6.408;2023-04-24T23:13:16;7.40;99.90
59208;DHT22;44977;53.132;6.408;2023-04-24T23:18:17;7.40;99.90
59208;DHT22;44977;53.132;6.408;2023-04-24T23:23:18;7.30;99.90
59208;DHT22;44977;53.132;6.408;2023-04-24T23:28:18;7.30;99.90
59208;DHT22;44977;53.132;6.408;2023-04-24T23:33:19;7.30;99.90
59208;DHT22;44977;53.132;6.408;2023-04-24T23:38:20;7.30;99.90
59208;DHT22;44977;53.132;6.408;2023-04-24T23:43:20;7.20;99.90
59208;DHT22;44977;53.132;6.408;2023-04-24T23:48:22;7.20;99.90
59208;DHT22;44977;53.132;6.408;2023-04-24T23:53:22;7.20;99.90
59208;DHT22;44977;53.132;6.408;2023-04-24T23:58:23;7.20;99.90
